Time;durP1;ratioP1;P1;durP2;ratioP2;P2;SDS_P1;SDS_P2;PMS_P1;PMS_P2;Temp;Humidity;BMP_temperature;BMP_pressure;BME280_temperature;BME280_humidity;BME280_pressure;Samples;Min_cycle;Max_cycle;Signal;HPM_P1;HPM_P2
2023/04/18 00:02:16;;;;;;;13.40;7.95;;;10.50;91.10;;;;;;5016670;28;20482;-82
2023/04/18 00:04:45;;;;;;;15.80;8.70;;;10.40;91.40;;;;;;4999424;28;20492;-82
2023/04/18 00:07:14;;;;;;;17.80;8.50;;;10.40;91.50;;;;;;4998236;28;20129;-83
2023/04/18 00:09:43;;;;;;;13.50;8.05;;;10.30;91.70;;;;;;4996968;28;20401;-81
2023/04/18 00:12:10;;;;;;;14.45;8.02;;;10.30;92.00;;;;;;5014554;28;20061;-82
2023/04/18 00:14:36;;;;;;;18.25;8.60;;;10.20;92.30;;;;;;5000015;28;20061;-82
2023/04/18 00:17:07;;;;;;;14.88;8.10;;;10.20;92.60;;;;;;4999901;28;20089;-82
2023/04/18 00:19:33;;;;;;;17.10;9.10;;;10.20;92.60;;;;;;4997869;28;20022;-82
2023/04/18 00:21:59;;;;;;;18.95;9.57;;;10.10;92.90;;;;;;5001437;28;20489;-82
2023/04/18 00:24:24;;;;;;;16.50;8.55;;;10.10;93.20;;;;;;4998746;28;20025;-82
2023/04/18 00:26:50;;;;;;;13.82;8.77;;;10.10;93.30;;;;;;4994983;28;20037;-82
2023/04/18 00:29:16;;;;;;;14.98;9.23;;;10.00;93.50;;;;;;5000625;28;20045;-81
2023/04/18 00:31:42;;;;;;;15.60;8.52;;;10.00;93.80;;;;;;4999517;28;20025;-82
2023/04/18 00:34:08;;;;;;;14.45;8.65;;;10.00;94.00;;;;;;5014885;28;20022;-79
2023/04/18 00:36:33;;;;;;;17.88;8.50;;;9.90;94.20;;;;;;5000868;28;20021;-81
2023/04/18 00:38:59;;;;;;;13.88;8.63;;;9.90;94.40;;;;;;5002259;28;20048;-80
2023/04/18 00:41:27;;;;;;;16.60;8.52;;;9.90;95.10;;;;;;4997318;28;20446;-82
2023/04/18 00:44:01;;;;;;;12.75;8.55;;;9.80;95.10;;;;;;4996290;28;20026;-82
2023/04/18 00:46:27;;;;;;;15.57;7.97;;;9.70;95.30;;;;;;5001702;28;20096;-80
2023/04/18 00:48:53;;;;;;;13.38;8.27;;;9.80;95.50;;;;;;4998340;28;20110;-81
2023/04/18 00:51:19;;;;;;;17.70;8.60;;;9.70;95.60;;;;;;4998992;28;20025;-80
2023/04/18 00:53:45;;;;;;;14.75;8.00;;;9.80;95.80;;;;;;4997885;28;20034;-81
2023/04/18 00:56:11;;;;;;;13.20;7.93;;;9.70;96.10;;;;;;4997694;28;20097;-82
2023/04/18 00:58:39;;;;;;;17.27;8.35;;;9.70;96.20;;;;;;4998511;28;20183;-82
2023/04/18 01:01:05;;;;;;;15.48;8.88;;;9.60;96.40;;;;;;5012955;28;20037;-82
2023/04/18 01:03:31;;;;;;;11.65;7.70;;;9.70;96.80;;;;;;4999509;28;20087;-84
2023/04/18 01:05:57;;;;;;;12.55;7.78;;;9.60;97.00;;;;;;4998202;28;20030;-83
2023/04/18 01:08:23;;;;;;;13.77;7.97;;;9.60;97.40;;;;;;4996751;28;20037;-82
2023/04/18 01:10:50;;;;;;;13.27;7.95;;;9.50;97.70;;;;;;4997389;28;20108;-82
2023/04/18 01:13:18;;;;;;;17.58;7.78;;;9.40;98.20;;;;;;4998952;28;20049;-82
2023/04/18 01:15:49;;;;;;;11.50;7.50;;;9.40;98.20;;;;;;4993114;28;20075;-81
2023/04/18 01:18:15;;;;;;;21.20;8.02;;;9.40;98.40;;;;;;4997755;28;20041;-83
2023/04/18 01:20:45;;;;;;;11.82;7.90;;;9.40;98.60;;;;;;4995610;28;20029;-82
2023/04/18 01:23:11;;;;;;;12.65;8.13;;;9.40;99.00;;;;;;5015608;28;20456;-82
2023/04/18 01:25:38;;;;;;;13.55;8.35;;;9.30;99.00;;;;;;4996672;28;20021;-81
2023/04/18 01:28:05;;;;;;;12.52;7.70;;;9.30;99.30;;;;;;4999432;28;20037;-82
2023/04/18 01:30:32;;;;;;;13.27;7.72;;;9.30;99.60;;;;;;4995392;28;20026;-82
2023/04/18 01:32:59;;;;;;;14.95;8.02;;;9.30;99.70;;;;;;4997489;28;20060;-82
2023/04/18 01:35:24;;;;;;;14.85;8.07;;;9.20;99.90;;;;;;5013243;28;20771;-82
2023/04/18 01:37:50;;;;;;;14.65;8.48;;;9.20;99.90;;;;;;5010279;28;20025;-82
2023/04/18 01:40:16;;;;;;;17.27;7.22;;;9.20;99.90;;;;;;4999797;28;20041;-82
2023/04/18 01:42:41;;;;;;;17.15;8.00;;;9.20;99.90;;;;;;4998792;28;20080;-82
2023/04/18 01:45:07;;;;;;;17.00;7.05;;;9.20;99.90;;;;;;4999675;28;20034;-83
2023/04/18 01:47:33;;;;;;;10.82;7.32;;;9.20;99.90;;;;;;4998915;28;20018;-83
2023/04/18 01:49:58;;;;;;;11.43;6.78;;;9.10;99.90;;;;;;4998075;28;20836;-83
2023/04/18 01:52:25;;;;;;;10.88;7.03;;;9.10;99.90;;;;;;4999036;28;20170;-83
2023/04/18 01:54:50;;;;;;;10.52;7.10;;;9.10;99.90;;;;;;4998635;28;20084;-80
2023/04/18 01:57:18;;;;;;;9.45;6.65;;;9.00;99.90;;;;;;4997617;28;20567;-82
2023/04/18 01:59:44;;;;;;;10.23;6.40;;;9.00;99.90;;;;;;4998027;28;20065;-83
2023/04/18 02:02:10;;;;;;;12.02;6.90;;;9.00;99.90;;;;;;4997506;28;20164;-82
2023/04/18 02:04:35;;;;;;;8.95;6.40;;;9.00;99.90;;;;;;4997537;28;20029;-81
2023/04/18 02:07:01;;;;;;;12.80;6.65;;;9.00;99.90;;;;;;5001121;28;20030;-83
2023/04/18 02:09:27;;;;;;;12.57;7.35;;;9.00;99.90;;;;;;4997690;28;20042;-82
2023/04/18 02:11:55;;;;;;;15.05;7.15;;;9.00;99.90;;;;;;5013264;28;21080;-81
2023/04/18 02:14:20;;;;;;;14.93;7.53;;;9.00;99.90;;;;;;4997907;28;20049;-82
2023/04/18 02:16:46;;;;;;;12.30;7.85;;;8.90;99.90;;;;;;5004253;28;20018;-81
2023/04/18 02:19:12;;;;;;;16.70;8.07;;;8.80;99.90;;;;;;4996731;28;20025;-81
2023/04/18 02:21:37;;;;;;;10.88;6.57;;;8.80;99.90;;;;;;5009609;28;20078;-81
2023/04/18 02:24:05;;;;;;;9.45;6.35;;;8.80;99.90;;;;;;4996323;28;20037;-82
2023/04/18 02:26:31;;;;;;;8.88;5.57;;;8.80;99.90;;;;;;5021603;28;20022;-81
2023/04/18 02:28:57;;;;;;;16.73;6.63;;;8.70;99.90;;;;;;5001044;28;20282;-84
2023/04/18 02:31:23;;;;;;;9.55;6.57;;;8.70;99.90;;;;;;5004066;28;20024;-81
2023/04/18 02:33:48;;;;;;;9.15;6.28;;;8.60;99.90;;;;;;5001377;28;20504;-81
2023/04/18 02:36:14;;;;;;;11.75;5.93;;;8.60;99.90;;;;;;4996718;28;20754;-81
2023/04/18 02:38:40;;;;;;;11.90;6.95;;;8.60;99.90;;;;;;4999958;28;20030;-81
2023/04/18 02:41:08;;;;;;;9.82;6.30;;;8.50;99.90;;;;;;5015379;28;20390;-79
2023/04/18 02:43:33;;;;;;;8.63;6.40;;;8.50;99.90;;;;;;5002551;28;20034;-80
2023/04/18 02:45:59;;;;;;;12.25;6.22;;;8.50;99.90;;;;;;5016800;28;20318;-81
2023/04/18 02:48:25;;;;;;;9.70;5.97;;;8.50;99.90;;;;;;5002486;28;20084;-81
2023/04/18 02:50:50;;;;;;;8.63;5.78;;;8.50;99.90;;;;;;4999359;28;20560;-81
2023/04/18 02:53:16;;;;;;;9.20;6.22;;;8.40;99.90;;;;;;5001925;28;20554;-81
2023/04/18 02:55:42;;;;;;;8.10;6.13;;;8.40;99.90;;;;;;5000762;28;20037;-80
2023/04/18 02:58:08;;;;;;;11.63;5.97;;;8.40;99.90;;;;;;5002195;28;20083;-83
2023/04/18 03:00:34;;;;;;;10.45;6.65;;;8.40;99.90;;;;;;5016073;28;20180;-81
2023/04/18 03:03:00;;;;;;;10.90;6.40;;;8.40;99.90;;;;;;5005527;28;20064;-81
2023/04/18 03:05:26;;;;;;;11.80;7.18;;;8.40;99.90;;;;;;4997840;28;20116;-81
2023/04/18 03:07:51;;;;;;;9.10;5.78;;;8.40;99.90;;;;;;5002227;28;20032;-83
2023/04/18 03:10:17;;;;;;;11.00;6.40;;;8.40;99.90;;;;;;4999718;28;20037;-82
2023/04/18 03:12:43;;;;;;;10.45;6.45;;;8.30;99.90;;;;;;4999037;28;20085;-81
2023/04/18 03:15:09;;;;;;;8.80;5.97;;;8.30;99.90;;;;;;5007533;28;20570;-81
2023/04/18 03:17:35;;;;;;;10.20;6.32;;;8.20;99.90;;;;;;4999897;28;20135;-81
2023/04/18 03:20:00;;;;;;;8.00;6.45;;;8.20;99.90;;;;;;5002123;28;20265;-81
2023/04/18 03:22:26;;;;;;;9.27;6.20;;;8.20;99.90;;;;;;4998349;28;20101;-81
2023/04/18 03:24:52;;;;;;;14.93;5.90;;;8.20;99.90;;;;;;4998590;28;20058;-82
2023/04/18 03:27:20;;;;;;;12.65;6.10;;;8.20;99.90;;;;;;5011939;28;20022;-81
2023/04/18 03:29:45;;;;;;;10.60;6.32;;;8.20;99.90;;;;;;5016942;28;20637;-81
2023/04/18 03:32:11;;;;;;;9.43;6.28;;;8.20;99.90;;;;;;5001637;28;20064;-81
2023/04/18 03:34:37;;;;;;;8.90;6.07;;;8.10;99.90;;;;;;5016247;28;20030;-81
2023/04/18 03:37:02;;;;;;;9.85;6.85;;;8.20;99.90;;;;;;5000934;28;20028;-81
2023/04/18 03:39:28;;;;;;;12.88;6.40;;;8.20;99.90;;;;;;5016887;28;20029;-81
2023/04/18 03:41:54;;;;;;;10.18;6.05;;;8.20;99.90;;;;;;5000663;28;20056;-82
2023/04/18 03:44:19;;;;;;;8.85;6.68;;;8.10;99.90;;;;;;5002902;28;20509;-81
2023/04/18 03:46:45;;;;;;;12.75;6.70;;;8.10;99.90;;;;;;5017692;28;20561;-81
2023/04/18 03:49:11;;;;;;;11.27;7.05;;;8.10;99.90;;;;;;4999514;28;20616;-82
2023/04/18 03:51:48;;;;;;;10.50;6.95;;;8.10;99.90;;;;;;5012833;28;20033;-80
2023/04/18 03:54:15;;;;;;;13.50;7.43;;;8.00;99.90;;;;;;5015875;28;20025;-81
2023/04/18 03:56:40;;;;;;;11.90;6.55;;;8.10;99.90;;;;;;5000600;28;20485;-81
2023/04/18 03:59:06;;;;;;;12.70;7.30;;;8.00;99.90;;;;;;5006109;28;20048;-81
2023/04/18 04:01:32;;;;;;;9.88;7.30;;;8.00;99.90;;;;;;5000167;28;20041;-81
2023/04/18 04:04:00;;;;;;;8.88;6.22;;;8.00;99.90;;;;;;4999555;28;20370;-81
2023/04/18 04:06:28;;;;;;;12.95;6.90;;;8.00;99.90;;;;;;4996801;28;20070;-81
2023/04/18 04:08:54;;;;;;;9.93;6.18;;;8.00;99.90;;;;;;5002113;28;20041;-82
2023/04/18 04:11:20;;;;;;;10.18;6.75;;;8.00;99.90;;;;;;5001834;28;20183;-81
2023/04/18 04:13:46;;;;;;;8.95;6.78;;;8.00;99.90;;;;;;4994985;28;20374;-81
2023/04/18 04:16:12;;;;;;;9.57;6.78;;;8.00;99.90;;;;;;4997918;28;20022;-81
2023/04/18 04:18:38;;;;;;;10.15;6.60;;;7.90;99.90;;;;;;5000975;28;20017;-81
2023/04/18 04:21:04;;;;;;;13.52;6.78;;;8.00;99.90;;;;;;4998744;28;21031;-81
2023/04/18 04:23:30;;;;;;;9.45;7.07;;;8.00;99.90;;;;;;5009021;28;20327;-81
2023/04/18 04:25:55;;;;;;;10.68;6.70;;;8.00;99.90;;;;;;5013589;28;20109;-82
2023/04/18 04:28:22;;;;;;;10.18;7.07;;;8.00;99.90;;;;;;4998454;28;20030;-83
2023/04/18 04:30:51;;;;;;;12.70;7.18;;;8.10;99.90;;;;;;4999828;28;20030;-81
2023/04/18 04:33:23;;;;;;;9.10;7.00;;;8.00;99.90;;;;;;4997189;28;20425;-81
2023/04/18 04:35:51;;;;;;;10.73;6.88;;;8.10;99.90;;;;;;4992873;28;20655;-82
2023/04/18 04:38:18;;;;;;;12.15;7.57;;;8.10;99.90;;;;;;4999773;28;20022;-82
2023/04/18 04:40:45;;;;;;;12.48;7.22;;;8.20;99.90;;;;;;4999706;28;20026;-81
2023/04/18 04:43:11;;;;;;;13.88;6.93;;;8.20;99.90;;;;;;4998387;28;20027;-82
2023/04/18 04:45:40;;;;;;;11.45;6.80;;;8.30;99.90;;;;;;4997194;28;20080;-81
2023/04/18 04:48:09;;;;;;;10.55;7.03;;;8.30;99.90;;;;;;4997761;28;20478;-81
2023/04/18 04:50:36;;;;;;;12.75;7.72;;;8.40;99.90;;;;;;4996505;28;20041;-83
2023/04/18 04:53:03;;;;;;;14.15;7.40;;;8.40;99.90;;;;;;4998485;28;20153;-81
2023/04/18 04:55:31;;;;;;;11.23;7.63;;;8.40;99.90;;;;;;4999294;28;20029;-82
2023/04/18 04:57:57;;;;;;;13.93;7.47;;;8.40;99.90;;;;;;4995477;28;20056;-82
2023/04/18 05:00:22;;;;;;;10.88;6.70;;;8.50;99.90;;;;;;5000709;28;20022;-81
2023/04/18 05:02:48;;;;;;;12.55;6.90;;;8.50;99.90;;;;;;4997629;28;20490;-81
2023/04/18 05:05:14;;;;;;;10.98;6.47;;;8.50;99.90;;;;;;4996626;28;20659;-82
2023/04/18 05:07:40;;;;;;;12.60;7.95;;;8.50;99.90;;;;;;4999677;28;20746;-83
2023/04/18 05:10:06;;;;;;;12.20;6.90;;;8.60;99.90;;;;;;5016274;28;20102;-82
2023/04/18 05:12:31;;;;;;;12.23;7.43;;;8.70;99.90;;;;;;5006459;28;20021;-82
2023/04/18 05:14:57;;;;;;;10.82;6.97;;;8.80;99.90;;;;;;5006015;28;20025;-82
2023/04/18 05:17:22;;;;;;;12.50;7.22;;;8.80;99.90;;;;;;5019412;28;20018;-82
2023/04/18 05:19:48;;;;;;;11.00;6.20;;;8.90;99.90;;;;;;4999512;28;20042;-82
2023/04/18 05:22:14;;;;;;;12.85;7.28;;;9.00;99.90;;;;;;4999750;28;20140;-81
2023/04/18 05:24:40;;;;;;;8.80;6.68;;;9.00;99.90;;;;;;4995559;28;20065;-83
2023/04/18 05:27:06;;;;;;;12.43;6.32;;;9.00;99.90;;;;;;4999329;28;20494;-85
2023/04/18 05:29:32;;;;;;;15.43;6.50;;;9.10;99.90;;;;;;4998577;28;20191;-82
2023/04/18 05:31:57;;;;;;;12.13;6.10;;;9.10;99.90;;;;;;4999918;28;20025;-81
2023/04/18 05:34:23;;;;;;;11.05;6.32;;;9.20;99.90;;;;;;4998040;28;20037;-81
2023/04/18 05:36:49;;;;;;;10.15;6.43;;;9.30;99.90;;;;;;4998315;28;20056;-81
2023/04/18 05:39:15;;;;;;;16.70;6.10;;;9.40;99.90;;;;;;4999544;28;20037;-82
2023/04/18 05:41:41;;;;;;;19.23;6.55;;;9.40;99.90;;;;;;5013040;28;20547;-82
2023/04/18 05:44:07;;;;;;;21.15;6.35;;;9.50;99.90;;;;;;4997068;28;20022;-81
2023/04/18 05:46:34;;;;;;;9.02;5.90;;;9.60;99.90;;;;;;5004238;28;20025;-81
2023/04/18 05:49:00;;;;;;;9.50;5.63;;;9.70;99.90;;;;;;4999360;28;20034;-82
2023/04/18 05:51:27;;;;;;;14.10;5.32;;;9.80;99.90;;;;;;4999304;28;20052;-81
2023/04/18 05:53:53;;;;;;;11.55;5.30;;;9.90;99.90;;;;;;5013729;28;20018;-89
2023/04/18 05:56:19;;;;;;;8.75;5.53;;;10.00;99.90;;;;;;5020181;28;20499;-82
2023/04/18 05:58:46;;;;;;;10.25;5.25;;;10.00;99.90;;;;;;5017816;28;20036;-81
2023/04/18 06:01:15;;;;;;;7.47;5.28;;;10.10;99.90;;;;;;5007442;28;20537;-84
2023/04/18 06:03:40;;;;;;;10.68;5.65;;;10.20;99.90;;;;;;4999681;28;20061;-80
2023/04/18 06:06:09;;;;;;;9.45;5.88;;;10.20;99.90;;;;;;5000358;28;20046;-82
2023/04/18 06:08:37;;;;;;;9.15;6.10;;;10.20;99.90;;;;;;5000557;28;20013;-82
2023/04/18 06:11:02;;;;;;;10.02;6.13;;;10.30;99.90;;;;;;4999026;28;20062;-80
2023/04/18 06:13:28;;;;;;;12.52;5.85;;;10.20;99.90;;;;;;5001047;28;20054;-82
2023/04/18 06:15:54;;;;;;;12.80;6.07;;;10.20;99.90;;;;;;4999128;28;20128;-81
2023/04/18 06:18:20;;;;;;;8.00;5.35;;;10.20;99.90;;;;;;5019149;28;20026;-81
2023/04/18 06:20:45;;;;;;;7.45;5.75;;;10.40;99.90;;;;;;5002721;28;21711;-83
2023/04/18 06:23:11;;;;;;;12.95;6.15;;;10.40;99.90;;;;;;5005604;28;20056;-81
2023/04/18 06:25:39;;;;;;;7.65;5.70;;;10.50;99.90;;;;;;5002052;28;20406;-81
2023/04/18 06:28:05;;;;;;;39.67;14.23;;;10.60;99.90;;;;;;5021972;28;20034;-88
2023/04/18 06:30:31;;;;;;;57.92;20.90;;;10.80;99.90;;;;;;5007993;28;20883;-92
2023/04/18 06:32:56;;;;;;;16.08;8.48;;;10.90;99.90;;;;;;5004989;28;20040;-91
2023/04/18 06:35:22;;;;;;;12.80;7.70;;;11.00;99.90;;;;;;5005481;28;20022;-90
2023/04/18 06:37:48;;;;;;;13.32;6.65;;;11.10;99.90;;;;;;5007443;28;20470;-91
2023/04/18 06:40:13;;;;;;;14.20;7.10;;;11.20;99.90;;;;;;5007801;28;20133;-88
2023/04/18 06:42:41;;;;;;;10.35;6.80;;;11.20;99.90;;;;;;5009250;28;20022;-91
2023/04/18 06:45:09;;;;;;;11.40;7.05;;;11.20;99.90;;;;;;5008648;28;20536;-89
2023/04/18 06:47:35;;;;;;;12.77;6.05;;;11.30;99.90;;;;;;5007983;28;20105;-91
2023/04/18 06:50:00;;;;;;;11.98;6.60;;;11.30;99.90;;;;;;5008888;28;20121;-90
2023/04/18 06:52:28;;;;;;;10.90;6.93;;;11.30;99.90;;;;;;5007385;28;20037;-91
2023/04/18 06:54:54;;;;;;;13.02;6.80;;;11.30;99.90;;;;;;5005903;28;20106;-91
2023/04/18 06:57:19;;;;;;;10.60;6.82;;;11.30;99.90;;;;;;5009151;28;20501;-93
2023/04/18 06:59:45;;;;;;;10.48;6.80;;;11.30;99.90;;;;;;5011102;28;20034;-91
2023/04/18 07:02:11;;;;;;;11.45;6.30;;;11.30;99.90;;;;;;5010693;28;20026;-91
2023/04/18 07:04:36;;;;;;;15.60;6.30;;;11.30;99.90;;;;;;5013329;28;20242;-90
2023/04/18 07:07:03;;;;;;;10.15;6.40;;;11.30;99.90;;;;;;5042443;28;20065;-91
2023/04/18 07:09:30;;;;;;;11.70;6.93;;;11.20;99.90;;;;;;5030770;28;20124;-93
2023/04/18 07:12:00;;;;;;;9.43;6.05;;;11.20;99.90;;;;;;5009969;28;20045;-82
2023/04/18 07:14:27;;;;;;;9.18;6.20;;;11.30;99.90;;;;;;5002891;28;20125;-84
2023/04/18 07:17:10;;;;;;;11.88;6.28;;;11.30;99.90;;;;;;5001679;28;20044;-81
2023/04/18 07:19:35;;;;;;;;;;;11.30;99.90;;;;;;4999931;28;20053;-82
2023/04/18 07:22:01;;;;;;;8.88;6.57;;;11.20;99.90;;;;;;5017166;28;20314;-83
2023/04/18 07:24:27;;;;;;;11.18;6.72;;;11.20;99.90;;;;;;5003854;28;20121;-82
2023/04/18 07:26:52;;;;;;;9.15;6.35;;;11.10;99.90;;;;;;5001962;28;20108;-80
2023/04/18 07:29:18;;;;;;;15.80;6.32;;;11.10;99.90;;;;;;5005453;28;20042;-81
2023/04/18 07:31:45;;;;;;;13.32;6.35;;;11.10;99.90;;;;;;5001543;28;20103;-82
2023/04/18 07:34:12;;;;;;;9.27;6.72;;;11.10;99.90;;;;;;5001326;28;20093;-81
2023/04/18 07:36:39;;;;;;;9.55;6.43;;;11.20;99.90;;;;;;5007758;28;20030;-80
2023/04/18 07:39:05;;;;;;;10.43;6.18;;;11.30;99.90;;;;;;5007689;28;20022;-81
2023/04/18 07:41:31;;;;;;;11.55;6.78;;;11.40;99.90;;;;;;5001767;28;20019;-81
2023/04/18 07:43:57;;;;;;;10.23;6.32;;;11.60;99.90;;;;;;4998300;28;20400;-82
2023/04/18 07:46:22;;;;;;;8.95;6.32;;;11.70;99.90;;;;;;5019697;28;20589;-82
2023/04/18 07:48:48;;;;;;;9.45;6.47;;;11.70;99.90;;;;;;5005186;28;20132;-80
2023/04/18 07:51:14;;;;;;;10.68;6.72;;;11.80;99.90;;;;;;5005004;28;20072;-80
2023/04/18 07:53:40;;;;;;;10.55;6.75;;;11.80;99.90;;;;;;5005782;28;20027;-82
2023/04/18 07:56:05;;;;;;;11.25;6.63;;;11.90;99.90;;;;;;5005260;28;20050;-81
2023/04/18 07:58:34;;;;;;;15.85;6.75;;;11.90;99.90;;;;;;5026545;28;20072;-82
2023/04/18 08:00:59;;;;;;;10.38;7.55;;;11.90;99.90;;;;;;5016758;28;20081;-82
2023/04/18 08:03:26;;;;;;;12.05;6.45;;;11.80;99.90;;;;;;5008384;28;20048;-80
2023/04/18 08:05:52;;;;;;;12.52;7.03;;;11.80;99.90;;;;;;5003036;28;20037;-81
2023/04/18 08:08:18;;;;;;;9.02;6.30;;;11.80;99.90;;;;;;5003041;28;20025;-81
2023/04/18 08:10:44;;;;;;;8.35;6.40;;;11.80;99.90;;;;;;5004198;28;20096;-82
2023/04/18 08:13:11;;;;;;;10.85;6.47;;;11.80;99.90;;;;;;5003312;28;20473;-81
2023/04/18 08:15:40;;;;;;;9.77;6.45;;;12.00;99.90;;;;;;5017257;28;20026;-83
2023/04/18 08:18:06;;;;;;;9.43;6.07;;;11.90;99.90;;;;;;5003582;28;20015;-80
2023/04/18 08:20:33;;;;;;;10.05;7.18;;;11.90;99.90;;;;;;5000426;28;20029;-81
2023/04/18 08:22:58;;;;;;;10.93;7.40;;;12.00;99.90;;;;;;4999352;28;20029;-82
2023/04/18 08:25:26;;;;;;;9.95;6.60;;;12.10;99.90;;;;;;5018262;28;20080;-81
2023/04/18 08:27:52;;;;;;;9.98;6.43;;;12.10;99.90;;;;;;5001937;28;20030;-83
2023/04/18 08:30:20;;;;;;;9.30;6.78;;;12.30;99.90;;;;;;5004642;28;20125;-81
2023/04/18 08:32:46;;;;;;;9.95;6.45;;;12.30;99.90;;;;;;4998779;28;20022;-81
2023/04/18 08:35:12;;;;;;;9.25;6.30;;;12.20;99.90;;;;;;5003922;28;20032;-82
2023/04/18 08:37:37;;;;;;;10.50;7.07;;;12.00;99.90;;;;;;5008413;28;20087;-81
2023/04/18 08:40:06;;;;;;;12.45;7.40;;;11.90;99.90;;;;;;5004947;28;20052;-82
2023/04/18 08:42:32;;;;;;;11.35;6.50;;;11.90;99.90;;;;;;5022095;28;20557;-81
2023/04/18 08:44:58;;;;;;;8.38;5.97;;;11.90;99.90;;;;;;5001312;28;20037;-81
2023/04/18 08:47:29;;;;;;;10.77;6.68;;;12.00;99.90;;;;;;5001318;28;20370;-82
2023/04/18 08:49:56;;;;;;;10.55;6.82;;;12.00;99.90;;;;;;5004647;28;20338;-81
2023/04/18 08:52:22;;;;;;;11.25;6.85;;;11.90;99.90;;;;;;4997234;28;20032;-81
2023/04/18 08:54:49;;;;;;;11.02;6.32;;;11.90;99.90;;;;;;5001640;28;20511;-82
2023/04/18 08:57:17;;;;;;;10.27;7.43;;;11.90;99.90;;;;;;5015907;28;20063;-81
2023/04/18 08:59:44;;;;;;;11.90;6.60;;;11.90;99.90;;;;;;5000578;28;20367;-81
2023/04/18 09:02:11;;;;;;;10.25;6.53;;;12.10;99.90;;;;;;5007776;28;20032;-84
2023/04/18 09:04:44;;;;;;;12.52;6.82;;;12.10;99.90;;;;;;5001219;28;20053;-80
2023/04/18 09:07:15;;;;;;;13.25;6.00;;;12.00;99.90;;;;;;5002644;28;20037;-83
2023/04/18 09:09:53;;;;;;;10.32;6.32;;;12.10;99.90;;;;;;5001872;28;20069;-82
2023/04/18 09:12:24;;;;;;;9.15;6.82;;;12.10;99.90;;;;;;5003655;28;20030;-81
2023/04/18 09:14:56;;;;;;;9.52;7.15;;;12.30;99.90;;;;;;5002130;28;20018;-82
2023/04/18 09:17:37;;;;;;;7.45;5.97;;;12.50;99.90;;;;;;5004267;28;20064;-82
2023/04/18 09:20:14;;;;;;;15.80;6.70;;;12.70;99.90;;;;;;4998969;28;20037;-82
2023/04/18 09:22:46;;;;;;;11.75;6.50;;;12.80;99.90;;;;;;5016749;28;20430;-82
2023/04/18 09:25:26;;;;;;;11.18;6.88;;;13.00;99.90;;;;;;5020290;28;20022;-82
2023/04/18 09:27:52;;;;;;;13.15;6.35;;;13.10;99.90;;;;;;5008468;28;20121;-82
2023/04/18 09:30:38;;;;;;;12.07;7.00;;;13.00;99.90;;;;;;5004638;28;20088;-82
2023/04/18 09:33:09;;;;;;;11.00;6.40;;;13.00;99.90;;;;;;4996496;28;20033;-82
2023/04/18 09:35:38;;;;;;;9.30;6.22;;;13.10;99.90;;;;;;5001300;28;20045;-82
2023/04/18 09:38:07;;;;;;;10.00;6.80;;;13.30;99.90;;;;;;4995863;28;20033;-85
2023/04/18 09:40:33;;;;;;;12.98;6.53;;;13.00;99.90;;;;;;5001261;28;20025;-82
2023/04/18 09:42:59;;;;;;;9.88;6.57;;;12.80;99.90;;;;;;5001355;28;20179;-83
2023/04/18 09:45:32;;;;;;;8.45;5.80;;;12.70;99.90;;;;;;4999342;28;20022;-82
2023/04/18 09:47:57;;;;;;;12.23;7.13;;;12.60;99.90;;;;;;5003654;28;20030;-83
2023/04/18 09:50:23;;;;;;;15.77;7.03;;;12.60;99.90;;;;;;5002568;28;20034;-81
2023/04/18 09:52:49;;;;;;;19.35;10.48;;;12.50;99.90;;;;;;5001088;28;20506;-82
2023/04/18 09:55:16;;;;;;;11.10;6.75;;;12.40;99.90;;;;;;4999682;28;20116;-83
2023/04/18 09:57:45;;;;;;;12.10;6.80;;;12.50;99.90;;;;;;5142100;22;20023;-88
2023/04/18 10:00:32;;;;;;;11.15;7.53;;;12.60;99.90;;;;;;5000299;28;20045;-90
2023/04/18 10:03:08;;;;;;;10.35;6.90;;;12.80;99.90;;;;;;5000044;28;20334;-84
2023/04/18 10:05:39;;;;;;;10.52;7.03;;;13.10;99.90;;;;;;5010218;28;20172;-83
2023/04/18 10:08:05;;;;;;;11.73;7.43;;;13.00;99.90;;;;;;5014192;28;20030;-90
2023/04/18 10:10:33;;;;;;;9.68;7.28;;;13.10;99.90;;;;;;5018854;28;20068;-91
2023/04/18 10:13:01;;;;;;;12.43;7.53;;;13.20;99.90;;;;;;5003471;28;20026;-89
2023/04/18 10:15:28;;;;;;;14.82;7.57;;;13.30;99.90;;;;;;4996931;28;20496;-83
2023/04/18 10:18:01;;;;;;;14.40;8.52;;;13.40;99.90;;;;;;4995927;28;20014;-85
2023/04/18 10:20:29;;;;;;;14.68;7.85;;;13.50;99.90;;;;;;4995356;28;20046;-83
2023/04/18 10:22:56;;;;;;;14.82;8.23;;;13.60;99.90;;;;;;4994430;28;20026;-82
2023/04/18 10:25:37;;;;;;;13.65;8.10;;;13.50;99.90;;;;;;5019185;28;20041;-89
2023/04/18 10:28:05;;;;;;;15.02;8.75;;;13.50;99.90;;;;;;4996505;28;20030;-82
2023/04/18 10:30:40;;;;;;;14.07;7.78;;;13.40;99.90;;;;;;4998550;28;20684;-82
2023/04/18 10:33:23;;;;;;;10.07;7.10;;;13.30;99.90;;;;;;4995536;28;20018;-83
2023/04/18 10:36:07;;;;;;;14.30;7.30;;;13.20;99.90;;;;;;4997045;28;20120;-83
2023/04/18 10:38:33;;;;;;;12.30;8.20;;;13.00;99.90;;;;;;4996749;28;20096;-82
2023/04/18 10:41:25;;;;;;;13.13;7.95;;;13.00;99.90;;;;;;4996933;28;20030;-84
2023/04/18 10:44:16;;;;;;;13.48;8.30;;;12.90;99.90;;;;;;5004607;28;20571;-82
2023/04/18 10:47:08;;;;;;;13.20;7.95;;;12.90;99.90;;;;;;5001766;28;20385;-81
2023/04/18 10:49:37;;;;;;;13.68;8.60;;;13.00;99.90;;;;;;4999867;28;20429;-83
2023/04/18 10:52:07;;;;;;;23.65;11.18;;;13.20;99.90;;;;;;5003997;28;20018;-95
2023/04/18 10:55:08;;;;;;;12.57;8.63;;;13.40;99.90;;;;;;5002409;28;20026;-92
2023/04/18 10:57:42;;;;;;;22.00;10.35;;;13.50;99.90;;;;;;4997510;28;20108;-82
2023/04/18 11:00:13;;;;;;;13.90;9.13;;;13.60;99.90;;;;;;4996759;28;20454;-82
2023/04/18 11:02:44;;;;;;;14.60;9.07;;;13.80;99.90;;;;;;4992731;28;20080;-88
2023/04/18 11:05:09;;;;;;;13.55;8.60;;;14.00;99.90;;;;;;5003611;28;20045;-90
2023/04/18 11:07:39;;;;;;;16.98;9.00;;;14.00;99.90;;;;;;5002779;28;20018;-90
2023/04/18 11:10:06;;;;;;;15.82;9.25;;;14.10;99.90;;;;;;5002688;28;20033;-89
2023/04/18 11:12:33;;;;;;;13.95;8.90;;;14.10;99.90;;;;;;5004830;28;20470;-90
2023/04/18 11:15:01;;;;;;;30.63;13.43;;;14.30;99.90;;;;;;5004484;28;20034;-88
2023/04/18 11:17:31;;;;;;;15.68;9.70;;;14.40;99.90;;;;;;4999608;28;20041;-82
2023/04/18 11:20:09;;;;;;;15.15;9.85;;;14.30;99.90;;;;;;5009825;28;20107;-81
2023/04/18 11:22:57;;;;;;;15.57;10.43;;;14.20;99.90;;;;;;5005476;28;20367;-83
2023/04/18 11:25:35;;;;;;;18.05;10.05;;;14.30;99.90;;;;;;4993576;28;20184;-83
2023/04/18 11:28:03;;;;;;;18.40;10.75;;;14.40;99.90;;;;;;5005754;28;20040;-91
2023/04/18 11:30:40;;;;;;;19.45;10.43;;;14.40;99.90;;;;;;4997822;28;20814;-83
2023/04/18 11:33:15;;;;;;;16.00;11.30;;;14.40;99.90;;;;;;4998320;28;20026;-82
2023/04/18 11:35:45;;;;;;;15.93;10.85;;;14.40;99.90;;;;;;5015726;28;20030;-82
2023/04/18 11:38:14;;;;;;;21.58;12.07;;;14.50;99.90;;;;;;5014300;28;20049;-88
2023/04/18 11:40:49;;;;;;;18.30;11.65;;;14.50;99.90;;;;;;5007173;28;20943;-91
2023/04/18 11:43:24;;;;;;;19.58;11.57;;;14.60;99.90;;;;;;5010269;28;20018;-90
2023/04/18 11:45:56;;;;;;;20.55;12.15;;;14.40;99.90;;;;;;5003124;28;20784;-90
2023/04/18 11:48:22;;;;;;;20.17;11.95;;;14.50;99.90;;;;;;4996531;28;20126;-83
2023/04/18 11:50:48;;;;;;;20.35;11.63;;;14.50;99.90;;;;;;5005794;28;20106;-83
2023/04/18 11:53:14;;;;;;;21.33;12.00;;;14.60;99.90;;;;;;5004393;28;20022;-89
2023/04/18 11:55:40;;;;;;;17.52;11.93;;;14.50;99.90;;;;;;4999921;28;20015;-82
2023/04/18 11:58:07;;;;;;;19.20;11.85;;;14.60;99.90;;;;;;4997267;28;20103;-82
2023/04/18 12:00:37;;;;;;;19.73;12.32;;;14.70;99.90;;;;;;5001823;28;20085;-87
2023/04/18 12:03:04;;;;;;;18.52;11.90;;;14.80;99.90;;;;;;5007221;28;20029;-88
2023/04/18 12:05:36;;;;;;;22.13;12.50;;;14.90;99.90;;;;;;5008333;28;20081;-89
2023/04/18 12:08:07;;;;;;;24.60;13.65;;;15.10;99.90;;;;;;5005036;28;20018;-89
2023/04/18 12:10:34;;;;;;;22.92;13.95;;;15.30;99.90;;;;;;5007454;28;20040;-88
2023/04/18 12:13:01;;;;;;;21.30;13.05;;;15.30;99.90;;;;;;5009016;28;20026;-90
2023/04/18 12:15:32;;;;;;;20.67;13.52;;;15.30;99.90;;;;;;5008675;28;20034;-90
2023/04/18 12:17:59;;;;;;;19.65;13.38;;;15.30;99.90;;;;;;5010937;28;20383;-89
2023/04/18 12:20:48;;;;;;;21.75;13.27;;;15.40;99.90;;;;;;5000068;28;20167;-81
2023/04/18 12:23:50;;;;;;;21.20;12.80;;;15.80;99.90;;;;;;4996907;28;20186;-81
2023/04/18 12:26:17;;;;;;;21.42;14.07;;;16.10;99.90;;;;;;4924679;28;20089;-82
2023/04/18 12:28:48;;;;;;;21.75;13.48;;;15.90;99.90;;;;;;4987256;28;20125;-81
2023/04/18 12:31:14;;;;;;;22.67;14.07;;;15.70;99.90;;;;;;5001909;28;20022;-81
2023/04/18 12:33:39;;;;;;;24.58;13.63;;;15.70;99.90;;;;;;4998771;28;20478;-81
2023/04/18 12:36:07;;;;;;;26.25;14.35;;;15.70;99.90;;;;;;4992041;28;20018;-81
2023/04/18 12:38:34;;;;;;;31.33;14.75;;;15.70;99.90;;;;;;4998373;28;20377;-81
2023/04/18 12:40:59;;;;;;;30.02;15.07;;;15.90;99.90;;;;;;4997498;28;20022;-81
2023/04/18 12:43:25;;;;;;;23.90;13.55;;;16.20;99.90;;;;;;5002175;28;20377;-83
2023/04/18 12:45:51;;;;;;;24.58;14.27;;;16.30;99.90;;;;;;5001884;28;20033;-81
2023/04/18 12:48:16;;;;;;;22.50;14.02;;;16.20;99.90;;;;;;5004194;28;20130;-81